sensor_id;sensor_type;location;lat;lon;timestamp;temperature;humidity
26743;DHT22;14341;51.256;22.478;2023-05-10T00:00:55;5.70;90.90
26743;DHT22;14341;51.256;22.478;2023-05-10T00:04:00;5.70;93.60
26743;DHT22;14341;51.256;22.478;2023-05-10T00:07:03;5.60;95.30
26743;DHT22;14341;51.256;22.478;2023-05-10T00:10:07;5.60;93.10
26743;DHT22;14341;51.256;22.478;2023-05-10T00:13:10;5.50;97.40
26743;DHT22;14341;51.256;22.478;2023-05-10T00:16:14;5.40;99.90
26743;DHT22;14341;51.256;22.478;2023-05-10T00:19:19;5.30;99.90
26743;DHT22;14341;51.256;22.478;2023-05-10T00:22:22;5.30;99.90
26743;DHT22;14341;51.256;22.478;2023-05-10T00:25:25;5.20;99.90
26743;DHT22;14341;51.256;22.478;2023-05-10T00:28:28;5.10;99.90
26743;DHT22;14341;51.256;22.478;2023-05-10T00:31:32;5.10;99.90
26743;DHT22;14341;51.256;22.478;2023-05-10T00:34:37;5.00;99.90
26743;DHT22;14341;51.256;22.478;2023-05-10T00:37:40;4.90;99.90
26743;DHT22;14341;51.256;22.478;2023-05-10T00:40:44;4.80;99.90
26743;DHT22;14341;51.256;22.478;2023-05-10T00:43:55;4.70;99.90
26743;DHT22;14341;51.256;22.478;2023-05-10T00:46:59;4.60;99.90
26743;DHT22;14341;51.256;22.478;2023-05-10T00:50:05;4.50;99.90
26743;DHT22;14341;51.256;22.478;2023-05-10T00:53:09;4.50;99.90
26743;DHT22;14341;51.256;22.478;2023-05-10T00:56:12;4.30;99.90
26743;DHT22;14341;51.256;22.478;2023-05-10T00:59:15;4.50;99.90
26743;DHT22;14341;51.256;22.478;2023-05-10T01:02:19;4.50;99.90
26743;DHT22;14341;51.256;22.478;2023-05-10T01:05:24;4.40;99.90
26743;DHT22;14341;51.256;22.478;2023-05-10T01:08:28;4.70;99.90
26743;DHT22;14341;51.256;22.478;2023-05-10T01:11:32;4.50;99.90
26743;DHT22;14341;51.256;22.478;2023-05-10T01:14:36;4.40;99.90
26743;DHT22;14341;51.256;22.478;2023-05-10T01:17:43;4.30;99.90
26743;DHT22;14341;51.256;22.478;2023-05-10T01:20:55;4.20;99.90
26743;DHT22;14341;51.256;22.478;2023-05-10T01:24:27;4.20;99.90
26743;DHT22;14341;51.256;22.478;2023-05-10T01:31:28;3.90;99.90
26743;DHT22;14341;51.256;22.478;2023-05-10T01:34:40;3.90;99.90
26743;DHT22;14341;51.256;22.478;2023-05-10T01:37:48;3.80;99.90
26743;DHT22;14341;51.256;22.478;2023-05-10T01:41:04;3.80;99.90
26743;DHT22;14341;51.256;22.478;2023-05-10T01:44:18;3.70;99.90
26743;DHT22;14341;51.256;22.478;2023-05-10T01:47:28;3.60;99.90
26743;DHT22;14341;51.256;22.478;2023-05-10T01:50:37;3.50;99.90
26743;DHT22;14341;51.256;22.478;2023-05-10T01:53:42;3.50;99.90
26743;DHT22;14341;51.256;22.478;2023-05-10T01:56:48;3.50;99.90
26743;DHT22;14341;51.256;22.478;2023-05-10T01:59:54;3.40;99.90
26743;DHT22;14341;51.256;22.478;2023-05-10T02:03:00;3.40;99.90
26743;DHT22;14341;51.256;22.478;2023-05-10T02:06:07;3.30;99.90
26743;DHT22;14341;51.256;22.478;2023-05-10T02:09:16;3.20;99.90
26743;DHT22;14341;51.256;22.478;2023-05-10T02:12:27;3.10;99.90
26743;DHT22;14341;51.256;22.478;2023-05-10T02:15:32;3.10;99.90
26743;DHT22;14341;51.256;22.478;2023-05-10T02:18:36;3.10;99.90
26743;DHT22;14341;51.256;22.478;2023-05-10T02:21:41;3.00;99.90
26743;DHT22;14341;51.256;22.478;2023-05-10T02:24:47;2.90;99.90
26743;DHT22;14341;51.256;22.478;2023-05-10T02:27:54;2.80;99.90
26743;DHT22;14341;51.256;22.478;2023-05-10T02:30:58;2.90;99.90
26743;DHT22;14341;51.256;22.478;2023-05-10T02:34:02;2.80;99.90
26743;DHT22;14341;51.256;22.478;2023-05-10T02:37:12;2.70;99.90
26743;DHT22;14341;51.256;22.478;2023-05-10T02:40:17;2.70;99.90
26743;DHT22;14341;51.256;22.478;2023-05-10T02:43:21;2.70;99.90
26743;DHT22;14341;51.256;22.478;2023-05-10T02:46:25;2.60;99.90
26743;DHT22;14341;51.256;22.478;2023-05-10T02:49:30;2.50;99.90
26743;DHT22;14341;51.256;22.478;2023-05-10T02:52:40;2.60;99.90
26743;DHT22;14341;51.256;22.478;2023-05-10T02:55:45;2.60;99.90
26743;DHT22;14341;51.256;22.478;2023-05-10T02:58:56;2.50;99.90
26743;DHT22;14341;51.256;22.478;2023-05-10T03:02:02;2.50;99.90
26743;DHT22;14341;51.256;22.478;2023-05-10T03:05:07;2.50;99.90
26743;DHT22;14341;51.256;22.478;2023-05-10T03:08:11;2.50;99.90
26743;DHT22;14341;51.256;22.478;2023-05-10T03:11:24;2.50;99.90
26743;DHT22;14341;51.256;22.478;2023-05-10T03:14:45;2.40;99.90
26743;DHT22;14341;51.256;22.478;2023-05-10T03:17:55;2.50;99.90
26743;DHT22;14341;51.256;22.478;2023-05-10T03:21:02;2.50;99.90
26743;DHT22;14341;51.256;22.478;2023-05-10T03:24:10;2.50;99.90
26743;DHT22;14341;51.256;22.478;2023-05-10T03:27:18;2.50;99.90
26743;DHT22;14341;51.256;22.478;2023-05-10T03:30:22;2.60;99.90
26743;DHT22;14341;51.256;22.478;2023-05-10T03:33:27;2.60;99.90
26743;DHT22;14341;51.256;22.478;2023-05-10T03:36:30;2.70;99.90
26743;DHT22;14341;51.256;22.478;2023-05-10T03:39:35;2.80;99.90
26743;DHT22;14341;51.256;22.478;2023-05-10T03:42:41;2.90;99.90
26743;DHT22;14341;51.256;22.478;2023-05-10T03:45:45;3.00;99.90
26743;DHT22;14341;51.256;22.478;2023-05-10T03:48:48;3.10;99.90
26743;DHT22;14341;51.256;22.478;2023-05-10T03:51:52;3.20;99.90
26743;DHT22;14341;51.256;22.478;2023-05-10T03:54:57;3.40;99.90
26743;DHT22;14341;51.256;22.478;2023-05-10T03:58:00;3.50;99.90
26743;DHT22;14341;51.256;22.478;2023-05-10T04:01:04;3.60;99.90
26743;DHT22;14341;51.256;22.478;2023-05-10T04:04:07;3.80;99.90
26743;DHT22;14341;51.256;22.478;2023-05-10T04:07:10;3.90;99.90
26743;DHT22;14341;51.256;22.478;2023-05-10T04:10:16;4.10;99.90
26743;DHT22;14341;51.256;22.478;2023-05-10T04:13:20;4.30;99.90
26743;DHT22;14341;51.256;22.478;2023-05-10T04:16:23;4.40;99.90
26743;DHT22;14341;51.256;22.478;2023-05-10T04:19:29;4.60;99.90
26743;DHT22;14341;51.256;22.478;2023-05-10T04:22:32;4.90;99.90
26743;DHT22;14341;51.256;22.478;2023-05-10T04:25:37;5.20;99.90
26743;DHT22;14341;51.256;22.478;2023-05-10T04:28:40;5.40;99.90
26743;DHT22;14341;51.256;22.478;2023-05-10T04:31:43;5.50;99.90
26743;DHT22;14341;51.256;22.478;2023-05-10T04:34:47;5.70;99.90
26743;DHT22;14341;51.256;22.478;2023-05-10T04:37:50;5.90;99.90
26743;DHT22;14341;51.256;22.478;2023-05-10T04:41:03;6.10;99.90
26743;DHT22;14341;51.256;22.478;2023-05-10T04:44:07;6.20;99.90
26743;DHT22;14341;51.256;22.478;2023-05-10T04:47:10;6.40;99.90
26743;DHT22;14341;51.256;22.478;2023-05-10T04:50:15;6.60;99.90
26743;DHT22;14341;51.256;22.478;2023-05-10T04:53:19;6.80;99.90
26743;DHT22;14341;51.256;22.478;2023-05-10T04:56:24;7.00;98.40
26743;DHT22;14341;51.256;22.478;2023-05-10T04:59:27;7.10;96.40
26743;DHT22;14341;51.256;22.478;2023-05-10T05:02:30;7.20;94.60
26743;DHT22;14341;51.256;22.478;2023-05-10T05:05:34;7.40;92.00
26743;DHT22;14341;51.256;22.478;2023-05-10T05:08:37;7.60;94.90
26743;DHT22;14341;51.256;22.478;2023-05-10T05:11:42;7.80;96.40
26743;DHT22;14341;51.256;22.478;2023-05-10T05:14:45;7.90;92.40
26743;DHT22;14341;51.256;22.478;2023-05-10T05:17:48;8.10;90.70
26743;DHT22;14341;51.256;22.478;2023-05-10T05:20:52;8.20;86.10
26743;DHT22;14341;51.256;22.478;2023-05-10T05:23:55;8.30;83.60
26743;DHT22;14341;51.256;22.478;2023-05-10T05:27:00;8.50;67.20
26743;DHT22;14341;51.256;22.478;2023-05-10T05:30:04;8.60;54.30
26743;DHT22;14341;51.256;22.478;2023-05-10T05:33:08;8.80;42.40
26743;DHT22;14341;51.256;22.478;2023-05-10T05:36:11;8.90;27.70
26743;DHT22;14341;51.256;22.478;2023-05-10T05:39:15;9.10;11.80
26743;DHT22;14341;51.256;22.478;2023-05-10T05:42:21;9.20;8.90
26743;DHT22;14341;51.256;22.478;2023-05-10T05:45:24;9.30;4.90
26743;DHT22;14341;51.256;22.478;2023-05-10T05:48:29;9.40;1.00
26743;DHT22;14341;51.256;22.478;2023-05-10T05:51:33;9.60;1.00
26743;DHT22;14341;51.256;22.478;2023-05-10T05:54:37;9.70;1.00
26743;DHT22;14341;51.256;22.478;2023-05-10T05:57:42;9.80;1.00
26743;DHT22;14341;51.256;22.478;2023-05-10T06:00:45;9.90;1.00
26743;DHT22;14341;51.256;22.478;2023-05-10T06:03:48;10.20;1.00
26743;DHT22;14341;51.256;22.478;2023-05-10T06:06:54;10.40;1.00
26743;DHT22;14341;51.256;22.478;2023-05-10T06:09:57;10.50;1.00
26743;DHT22;14341;51.256;22.478;2023-05-10T06:13:02;10.60;1.00
26743;DHT22;14341;51.256;22.478;2023-05-10T06:16:06;10.70;1.00
26743;DHT22;14341;51.256;22.478;2023-05-10T06:19:09;10.80;1.00
26743;DHT22;14341;51.256;22.478;2023-05-10T06:22:13;11.00;1.00
26743;DHT22;14341;51.256;22.478;2023-05-10T06:25:16;11.10;1.00
26743;DHT22;14341;51.256;22.478;2023-05-10T06:28:22;11.30;1.00
26743;DHT22;14341;51.256;22.478;2023-05-10T06:31:25;11.40;1.00
26743;DHT22;14341;51.256;22.478;2023-05-10T06:34:28;11.60;1.00
26743;DHT22;14341;51.256;22.478;2023-05-10T06:37:32;11.70;1.00
26743;DHT22;14341;51.256;22.478;2023-05-10T06:40:35;11.80;1.00
26743;DHT22;14341;51.256;22.478;2023-05-10T06:43:41;11.80;1.00
26743;DHT22;14341;51.256;22.478;2023-05-10T06:46:45;11.90;1.00
26743;DHT22;14341;51.256;22.478;2023-05-10T06:49:48;12.00;1.00
26743;DHT22;14341;51.256;22.478;2023-05-10T06:52:52;12.20;1.00
26743;DHT22;14341;51.256;22.478;2023-05-10T06:55:55;12.40;1.00
26743;DHT22;14341;51.256;22.478;2023-05-10T06:58:59;12.50;99.90
26743;DHT22;14341;51.256;22.478;2023-05-10T07:02:03;12.50;99.90
26743;DHT22;14341;51.256;22.478;2023-05-10T07:05:07;12.50;1.00
26743;DHT22;14341;51.256;22.478;2023-05-10T07:08:10;12.70;1.00
26743;DHT22;14341;51.256;22.478;2023-05-10T07:11:15;12.70;99.90
26743;DHT22;14341;51.256;22.478;2023-05-10T07:14:19;12.70;99.90
26743;DHT22;14341;51.256;22.478;2023-05-10T07:17:23;12.80;99.90
26743;DHT22;14341;51.256;22.478;2023-05-10T07:20:26;12.90;99.90
26743;DHT22;14341;51.256;22.478;2023-05-10T07:23:30;13.00;99.90
26743;DHT22;14341;51.256;22.478;2023-05-10T07:26:33;13.10;99.90
26743;DHT22;14341;51.256;22.478;2023-05-10T07:29:38;13.20;99.90
26743;DHT22;14341;51.256;22.478;2023-05-10T07:32:41;13.40;99.90
26743;DHT22;14341;51.256;22.478;2023-05-10T07:35:44;13.30;99.90
26743;DHT22;14341;51.256;22.478;2023-05-10T07:38:48;13.40;99.90
26743;DHT22;14341;51.256;22.478;2023-05-10T07:41:51;13.40;99.90
26743;DHT22;14341;51.256;22.478;2023-05-10T07:44:56;13.40;99.90
26743;DHT22;14341;51.256;22.478;2023-05-10T07:48:00;13.70;99.90
26743;DHT22;14341;51.256;22.478;2023-05-10T07:51:03;13.80;99.90
26743;DHT22;14341;51.256;22.478;2023-05-10T07:54:20;14.00;99.90
26743;DHT22;14341;51.256;22.478;2023-05-10T07:57:24;13.90;99.90
26743;DHT22;14341;51.256;22.478;2023-05-10T08:00:28;14.10;99.90
26743;DHT22;14341;51.256;22.478;2023-05-10T08:03:32;14.00;99.90
26743;DHT22;14341;51.256;22.478;2023-05-10T08:06:35;14.10;99.90
26743;DHT22;14341;51.256;22.478;2023-05-10T08:09:39;14.30;99.90
26743;DHT22;14341;51.256;22.478;2023-05-10T08:12:42;14.50;99.90
26743;DHT22;14341;51.256;22.478;2023-05-10T08:15:47;14.60;99.90
26743;DHT22;14341;51.256;22.478;2023-05-10T08:18:50;14.70;99.90
26743;DHT22;14341;51.256;22.478;2023-05-10T08:21:53;14.80;99.90
26743;DHT22;14341;51.256;22.478;2023-05-10T08:24:57;14.90;99.90
26743;DHT22;14341;51.256;22.478;2023-05-10T08:28:00;14.90;99.90
26743;DHT22;14341;51.256;22.478;2023-05-10T08:31:05;14.80;99.90
26743;DHT22;14341;51.256;22.478;2023-05-10T08:34:09;14.60;99.90
26743;DHT22;14341;51.256;22.478;2023-05-10T08:37:12;15.00;99.90
26743;DHT22;14341;51.256;22.478;2023-05-10T08:40:15;15.30;99.90
26743;DHT22;14341;51.256;22.478;2023-05-10T08:43:19;15.40;99.90
26743;DHT22;14341;51.256;22.478;2023-05-10T08:46:23;15.30;99.90
26743;DHT22;14341;51.256;22.478;2023-05-10T08:49:27;15.40;99.90
26743;DHT22;14341;51.256;22.478;2023-05-10T08:52:38;15.40;99.90
26743;DHT22;14341;51.256;22.478;2023-05-10T08:55:42;15.50;99.90
26743;DHT22;14341;51.256;22.478;2023-05-10T08:58:45;15.50;99.90
26743;DHT22;14341;51.256;22.478;2023-05-10T09:01:51;15.70;99.90
26743;DHT22;14341;51.256;22.478;2023-05-10T09:04:55;15.70;99.90
26743;DHT22;14341;51.256;22.478;2023-05-10T09:07:58;15.80;99.90
26743;DHT22;14341;51.256;22.478;2023-05-10T09:11:02;15.70;99.90
26743;DHT22;14341;51.256;22.478;2023-05-10T09:14:05;15.80;99.90
26743;DHT22;14341;51.256;22.478;2023-05-10T09:17:11;16.00;99.90
26743;DHT22;14341;51.256;22.478;2023-05-10T09:20:14;16.00;99.90
26743;DHT22;14341;51.256;22.478;2023-05-10T09:23:19;15.80;99.90
26743;DHT22;14341;51.256;22.478;2023-05-10T09:26:22;15.70;99.90
26743;DHT22;14341;51.256;22.478;2023-05-10T09:29:26;15.90;99.90
26743;DHT22;14341;51.256;22.478;2023-05-10T09:32:42;15.90;99.90
26743;DHT22;14341;51.256;22.478;2023-05-10T09:35:45;16.00;99.90
26743;DHT22;14341;51.256;22.478;2023-05-10T09:38:50;16.20;99.90
26743;DHT22;14341;51.256;22.478;2023-05-10T09:41:53;16.40;99.90
26743;DHT22;14341;51.256;22.478;2023-05-10T09:45:01;16.40;99.90
26743;DHT22;14341;51.256;22.478;2023-05-10T09:48:06;16.40;99.90
26743;DHT22;14341;51.256;22.478;2023-05-10T09:51:09;16.50;99.90
26743;DHT22;14341;51.256;22.478;2023-05-10T09:54:14;16.40;99.90
26743;DHT22;14341;51.256;22.478;2023-05-10T09:57:20;16.30;99.90
26743;DHT22;14341;51.256;22.478;2023-05-10T10:00:23;16.30;99.90
26743;DHT22;14341;51.256;22.478;2023-05-10T10:03:28;16.60;99.90
26743;DHT22;14341;51.256;22.478;2023-05-10T10:06:36;16.90;99.90
26743;DHT22;14341;51.256;22.478;2023-05-10T10:09:40;17.10;99.90
26743;DHT22;14341;51.256;22.478;2023-05-10T10:12:44;17.00;99.90
26743;DHT22;14341;51.256;22.478;2023-05-10T10:15:47;17.20;99.90
26743;DHT22;14341;51.256;22.478;2023-05-10T10:18:54;17.40;99.90
26743;DHT22;14341;51.256;22.478;2023-05-10T10:21:58;17.00;99.90
26743;DHT22;14341;51.256;22.478;2023-05-10T10:25:02;17.20;99.90
26743;DHT22;14341;51.256;22.478;2023-05-10T10:28:16;17.30;99.90
26743;DHT22;14341;51.256;22.478;2023-05-10T10:31:27;17.60;99.90
26743;DHT22;14341;51.256;22.478;2023-05-10T10:34:38;17.50;99.90
26743;DHT22;14341;51.256;22.478;2023-05-10T10:37:46;17.40;99.90
26743;DHT22;14341;51.256;22.478;2023-05-10T10:41:02;17.70;99.90
26743;DHT22;14341;51.256;22.478;2023-05-10T10:44:35;17.80;99.90
26743;DHT22;14341;51.256;22.478;2023-05-10T10:47:38;18.10;99.90
26743;DHT22;14341;51.256;22.478;2023-05-10T10:50:46;18.20;99.90
26743;DHT22;14341;51.256;22.478;2023-05-10T10:53:49;18.80;99.90
26743;DHT22;14341;51.256;22.478;2023-05-10T10:57:10;19.00;99.90
26743;DHT22;14341;51.256;22.478;2023-05-10T11:00:22;19.30;99.90
26743;DHT22;14341;51.256;22.478;2023-05-10T11:03:27;19.40;99.90
26743;DHT22;14341;51.256;22.478;2023-05-10T11:06:33;18.70;99.90
26743;DHT22;14341;51.256;22.478;2023-05-10T11:09:39;18.70;99.90
26743;DHT22;14341;51.256;22.478;2023-05-10T11:12:51;19.10;99.90
26743;DHT22;14341;51.256;22.478;2023-05-10T11:15:55;19.30;99.90
26743;DHT22;14341;51.256;22.478;2023-05-10T11:19:02;19.20;99.90
26743;DHT22;14341;51.256;22.478;2023-05-10T11:22:13;19.40;99.90
26743;DHT22;14341;51.256;22.478;2023-05-10T11:25:17;20.10;99.90
26743;DHT22;14341;51.256;22.478;2023-05-10T11:28:20;20.60;99.90
26743;DHT22;14341;51.256;22.478;2023-05-10T11:31:24;20.30;99.90
26743;DHT22;14341;51.256;22.478;2023-05-10T11:34:30;20.10;99.90
26743;DHT22;14341;51.256;22.478;2023-05-10T11:37:38;20.10;99.90
26743;DHT22;14341;51.256;22.478;2023-05-10T11:40:45;19.80;99.90
26743;DHT22;14341;51.256;22.478;2023-05-10T11:43:50;20.40;99.90
26743;DHT22;14341;51.256;22.478;2023-05-10T11:46:53;20.80;99.90
26743;DHT22;14341;51.256;22.478;2023-05-10T11:49:57;20.40;99.90
26743;DHT22;14341;51.256;22.478;2023-05-10T11:53:02;20.60;99.90
26743;DHT22;14341;51.256;22.478;2023-05-10T11:56:06;20.90;99.90
26743;DHT22;14341;51.256;22.478;2023-05-10T11:59:09;20.40;99.90
26743;DHT22;14341;51.256;22.478;2023-05-10T12:02:14;21.00;99.90
26743;DHT22;14341;51.256;22.478;2023-05-10T12:05:19;21.40;99.90
26743;DHT22;14341;51.256;22.478;2023-05-10T12:08:27;21.60;99.90
26743;DHT22;14341;51.256;22.478;2023-05-10T12:11:33;21.10;99.90
26743;DHT22;14341;51.256;22.478;2023-05-10T12:14:42;21.10;99.90
26743;DHT22;14341;51.256;22.478;2023-05-10T12:17:46;22.10;99.90
26743;DHT22;14341;51.256;22.478;2023-05-10T12:20:52;22.50;99.90
26743;DHT22;14341;51.256;22.478;2023-05-10T12:24:01;22.40;99.90
26743;DHT22;14341;51.256;22.478;2023-05-10T12:27:05;21.80;99.90
26743;DHT22;14341;51.256;22.478;2023-05-10T12:30:10;21.50;99.90
26743;DHT22;14341;51.256;22.478;2023-05-10T12:33:14;21.40;99.90
26743;DHT22;14341;51.256;22.478;2023-05-10T12:36:23;21.70;99.90
26743;DHT22;14341;51.256;22.478;2023-05-10T12:39:39;21.20;99.90
26743;DHT22;14341;51.256;22.478;2023-05-10T12:42:43;21.80;99.90
26743;DHT22;14341;51.256;22.478;2023-05-10T12:45:47;22.00;99.90
26743;DHT22;14341;51.256;22.478;2023-05-10T12:48:50;21.30;99.90
26743;DHT22;14341;51.256;22.478;2023-05-10T12:52:09;21.40;99.90
26743;DHT22;14341;51.256;22.478;2023-05-10T12:55:14;21.60;99.90
26743;DHT22;14341;51.256;22.478;2023-05-10T12:58:18;22.60;99.90
26743;DHT22;14341;51.256;22.478;2023-05-10T13:01:36;22.20;99.90
26743;DHT22;14341;51.256;22.478;2023-05-10T13:04:40;22.40;99.90
26743;DHT22;14341;51.256;22.478;2023-05-10T13:07:43;22.70;99.90
26743;DHT22;14341;51.256;22.478;2023-05-10T13:10:48;22.20;99.90
26743;DHT22;14341;51.256;22.478;2023-05-10T13:13:52;22.80;99.90
26743;DHT22;14341;51.256;22.478;2023-05-10T13:16:55;22.50;99.90
26743;DHT22;14341;51.256;22.478;2023-05-10T13:19:59;22.20;99.90
26743;DHT22;14341;51.256;22.478;2023-05-10T13:23:03;22.20;99.90
26743;DHT22;14341;51.256;22.478;2023-05-10T13:26:08;21.70;99.90
26743;DHT22;14341;51.256;22.478;2023-05-10T13:29:12;21.80;99.90
26743;DHT22;14341;51.256;22.478;2023-05-10T13:32:15;21.80;99.90
26743;DHT22;14341;51.256;22.478;2023-05-10T13:35:18;21.90;99.90
26743;DHT22;14341;51.256;22.478;2023-05-10T13:38:22;22.30;99.90
26743;DHT22;14341;51.256;22.478;2023-05-10T13:41:27;22.00;99.90
26743;DHT22;14341;51.256;22.478;2023-05-10T13:44:31;22.10;99.90
26743;DHT22;14341;51.256;22.478;2023-05-10T13:47:35;22.20;99.90
26743;DHT22;14341;51.256;22.478;2023-05-10T13:50:38;21.70;99.90
26743;DHT22;14341;51.256;22.478;2023-05-10T13:53:42;22.10;99.90
26743;DHT22;14341;51.256;22.478;2023-05-10T13:56:46;22.00;99.90
26743;DHT22;14341;51.256;22.478;2023-05-10T13:59:50;21.90;99.90
26743;DHT22;14341;51.256;22.478;2023-05-10T14:02:55;22.30;99.90
26743;DHT22;14341;51.256;22.478;2023-05-10T14:05:59;22.00;99.90
26743;DHT22;14341;51.256;22.478;2023-05-10T14:09:02;21.30;99.90
26743;DHT22;14341;51.256;22.478;2023-05-10T14:12:07;21.40;99.90
26743;DHT22;14341;51.256;22.478;2023-05-10T14:15:11;22.30;99.90
26743;DHT22;14341;51.256;22.478;2023-05-10T14:18:14;21.60;99.90
26743;DHT22;14341;51.256;22.478;2023-05-10T14:21:18;21.40;99.90
26743;DHT22;14341;51.256;22.478;2023-05-10T14:24:22;21.50;99.90
26743;DHT22;14341;51.256;22.478;2023-05-10T14:27:26;21.20;99.90
26743;DHT22;14341;51.256;22.478;2023-05-10T14:30:30;22.00;99.90
26743;DHT22;14341;51.256;22.478;2023-05-10T14:33:34;21.60;99.90
26743;DHT22;14341;51.256;22.478;2023-05-10T14:36:37;21.20;99.90
26743;DHT22;14341;51.256;22.478;2023-05-10T14:39:42;21.50;99.90
26743;DHT22;14341;51.256;22.478;2023-05-10T14:42:47;22.10;99.90
26743;DHT22;14341;51.256;22.478;2023-05-10T14:45:50;21.50;99.90
26743;DHT22;14341;51.256;22.478;2023-05-10T14:48:54;21.00;99.90
26743;DHT22;14341;51.256;22.478;2023-05-10T14:52:00;21.10;99.90
26743;DHT22;14341;51.256;22.478;2023-05-10T14:55:05;22.10;99.90
26743;DHT22;14341;51.256;22.478;2023-05-10T14:58:09;22.60;99.90
26743;DHT22;14341;51.256;22.478;2023-05-10T15:01:13;23.10;99.90
26743;DHT22;14341;51.256;22.478;2023-05-10T15:04:18;23.20;99.90
26743;DHT22;14341;51.256;22.478;2023-05-10T15:07:23;23.50;99.90
26743;DHT22;14341;51.256;22.478;2023-05-10T15:10:27;23.10;99.90
26743;DHT22;14341;51.256;22.478;2023-05-10T15:13:34;22.30;99.90
26743;DHT22;14341;51.256;22.478;2023-05-10T15:16:38;23.30;99.90
26743;DHT22;14341;51.256;22.478;2023-05-10T15:19:41;23.10;99.90
26743;DHT22;14341;51.256;22.478;2023-05-10T15:22:45;23.40;99.90
26743;DHT22;14341;51.256;22.478;2023-05-10T15:25:48;24.30;99.90
26743;DHT22;14341;51.256;22.478;2023-05-10T15:28:53;22.80;99.90
26743;DHT22;14341;51.256;22.478;2023-05-10T15:31:57;22.30;99.90
26743;DHT22;14341;51.256;22.478;2023-05-10T15:35:00;22.50;99.90
26743;DHT22;14341;51.256;22.478;2023-05-10T15:38:04;22.70;99.90
26743;DHT22;14341;51.256;22.478;2023-05-10T15:41:07;23.60;99.90
26743;DHT22;14341;51.256;22.478;2023-05-10T15:44:12;24.00;99.90
26743;DHT22;14341;51.256;22.478;2023-05-10T15:47:16;24.20;99.90
26743;DHT22;14341;51.256;22.478;2023-05-10T15:50:19;23.50;99.90
26743;DHT22;14341;51.256;22.478;2023-05-10T15:53:23;23.70;99.90
26743;DHT22;14341;51.256;22.478;2023-05-10T15:56:26;22.20;99.90
26743;DHT22;14341;51.256;22.478;2023-05-10T15:59:31;22.40;99.90
26743;DHT22;14341;51.256;22.478;2023-05-10T16:02:36;21.90;99.90
26743;DHT22;14341;51.256;22.478;2023-05-10T16:05:40;22.10;99.90
26743;DHT22;14341;51.256;22.478;2023-05-10T16:08:44;22.90;99.90
26743;DHT22;14341;51.256;22.478;2023-05-10T16:11:48;23.50;99.90
26743;DHT22;14341;51.256;22.478;2023-05-10T16:14:53;23.70;99.90
26743;DHT22;14341;51.256;22.478;2023-05-10T16:17:57;23.10;99.90
26743;DHT22;14341;51.256;22.478;2023-05-10T16:21:01;22.40;99.90
26743;DHT22;14341;51.256;22.478;2023-05-10T16:24:04;21.70;99.90
26743;DHT22;14341;51.256;22.478;2023-05-10T16:27:08;21.90;99.90
26743;DHT22;14341;51.256;22.478;2023-05-10T16:30:15;21.00;99.90
26743;DHT22;14341;51.256;22.478;2023-05-10T16:33:18;19.20;99.90
26743;DHT22;14341;51.256;22.478;2023-05-10T16:36:22;18.40;99.90
26743;DHT22;14341;51.256;22.478;2023-05-10T16:39:25;17.60;99.90
26743;DHT22;14341;51.256;22.478;2023-05-10T16:42:29;17.20;99.90
26743;DHT22;14341;51.256;22.478;2023-05-10T16:45:34;16.70;99.90
26743;DHT22;14341;51.256;22.478;2023-05-10T16:48:38;16.50;99.90
26743;DHT22;14341;51.256;22.478;2023-05-10T16:51:42;16.50;99.90
26743;DHT22;14341;51.256;22.478;2023-05-10T16:54:46;16.20;99.90
26743;DHT22;14341;51.256;22.478;2023-05-10T16:57:50;15.90;99.90
26743;DHT22;14341;51.256;22.478;2023-05-10T17:01:01;15.70;99.90
26743;DHT22;14341;51.256;22.478;2023-05-10T17:04:06;15.50;99.90
26743;DHT22;14341;51.256;22.478;2023-05-10T17:07:10;15.40;99.90
26743;DHT22;14341;51.256;22.478;2023-05-10T17:10:14;15.30;99.90
26743;DHT22;14341;51.256;22.478;2023-05-10T17:13:17;15.20;99.90
26743;DHT22;14341;51.256;22.478;2023-05-10T17:16:22;14.90;99.90
26743;DHT22;14341;51.256;22.478;2023-05-10T17:19:25;14.70;99.90
26743;DHT22;14341;51.256;22.478;2023-05-10T17:22:29;14.40;99.90
26743;DHT22;14341;51.256;22.478;2023-05-10T17:25:34;14.50;99.90
26743;DHT22;14341;51.256;22.478;2023-05-10T17:28:38;14.30;99.90
26743;DHT22;14341;51.256;22.478;2023-05-10T17:31:43;14.30;99.90
26743;DHT22;14341;51.256;22.478;2023-05-10T17:34:47;14.20;99.90
26743;DHT22;14341;51.256;22.478;2023-05-10T17:37:51;14.00;99.90
26743;DHT22;14341;51.256;22.478;2023-05-10T17:40:54;13.80;99.90
26743;DHT22;14341;51.256;22.478;2023-05-10T17:43:58;13.80;99.90
26743;DHT22;14341;51.256;22.478;2023-05-10T17:47:03;13.70;99.90
26743;DHT22;14341;51.256;22.478;2023-05-10T17:50:08;13.60;99.90
26743;DHT22;14341;51.256;22.478;2023-05-10T17:53:14;13.40;99.90
26743;DHT22;14341;51.256;22.478;2023-05-10T17:56:17;13.30;99.90
26743;DHT22;14341;51.256;22.478;2023-05-10T17:59:23;13.10;99.90
26743;DHT22;14341;51.256;22.478;2023-05-10T18:02:28;13.00;99.90
26743;DHT22;14341;51.256;22.478;2023-05-10T18:05:35;12.90;99.90
26743;DHT22;14341;51.256;22.478;2023-05-10T18:08:39;12.80;99.90
26743;DHT22;14341;51.256;22.478;2023-05-10T18:11:42;12.60;99.90
26743;DHT22;14341;51.256;22.478;2023-05-10T18:14:46;12.60;99.90
26743;DHT22;14341;51.256;22.478;2023-05-10T18:17:51;12.60;99.90
26743;DHT22;14341;51.256;22.478;2023-05-10T18:20:55;12.40;99.90
26743;DHT22;14341;51.256;22.478;2023-05-10T18:23:59;12.30;99.90
26743;DHT22;14341;51.256;22.478;2023-05-10T18:27:03;12.20;99.90
26743;DHT22;14341;51.256;22.478;2023-05-10T18:30:08;12.30;99.90
26743;DHT22;14341;51.256;22.478;2023-05-10T18:33:14;12.30;99.90
26743;DHT22;14341;51.256;22.478;2023-05-10T18:36:18;12.10;99.90
26743;DHT22;14341;51.256;22.478;2023-05-10T18:39:22;12.00;99.90
26743;DHT22;14341;51.256;22.478;2023-05-10T18:42:27;11.90;99.90
26743;DHT22;14341;51.256;22.478;2023-05-10T18:45:30;11.80;99.90
26743;DHT22;14341;51.256;22.478;2023-05-10T18:48:35;11.60;99.90
26743;DHT22;14341;51.256;22.478;2023-05-10T18:51:39;11.60;99.90
26743;DHT22;14341;51.256;22.478;2023-05-10T18:54:43;11.50;99.90
26743;DHT22;14341;51.256;22.478;2023-05-10T18:57:46;11.30;99.90
26743;DHT22;14341;51.256;22.478;2023-05-10T19:00:51;11.10;99.90
26743;DHT22;14341;51.256;22.478;2023-05-10T19:03:56;11.20;99.90
26743;DHT22;14341;51.256;22.478;2023-05-10T19:07:00;11.10;99.90
26743;DHT22;14341;51.256;22.478;2023-05-10T19:10:05;11.10;99.90
26743;DHT22;14341;51.256;22.478;2023-05-10T19:13:09;11.00;99.90
26743;DHT22;14341;51.256;22.478;2023-05-10T19:16:14;11.00;99.90
26743;DHT22;14341;51.256;22.478;2023-05-10T19:19:24;10.90;99.90
26743;DHT22;14341;51.256;22.478;2023-05-10T19:22:28;10.80;99.90